createdAt,value
2018-06-13T00:02:12.939Z,20.06
2018-06-13T00:04:43.459Z,20.08
2018-06-13T00:07:13.783Z,20.09
2018-06-13T00:09:43.787Z,20.06
2018-06-13T00:12:13.923Z,19.98
2018-06-13T00:14:44.167Z,19.96
2018-06-13T00:17:14.422Z,19.90
2018-06-13T00:19:44.654Z,19.85
2018-06-13T00:22:14.808Z,19.81
2018-06-13T00:24:45.023Z,19.79
2018-06-13T00:27:15.159Z,19.78
2018-06-13T00:29:45.844Z,19.74
2018-06-13T00:32:15.963Z,19.70
2018-06-13T00:34:46.100Z,19.67
2018-06-13T00:37:16.273Z,19.61
2018-06-13T00:39:46.442Z,19.54
2018-06-13T00:42:16.562Z,19.51
2018-06-13T00:44:46.878Z,19.48
2018-06-13T00:47:17.066Z,19.45
2018-06-13T00:49:47.209Z,19.42
2018-06-13T00:52:17.101Z,19.39
2018-06-13T00:54:47.561Z,19.32
2018-06-13T00:57:17.708Z,19.29
2018-06-13T00:59:47.795Z,19.28
2018-06-13T01:02:17.962Z,19.30
2018-06-13T01:04:48.555Z,19.27
2018-06-13T01:07:18.468Z,19.22
2018-06-13T01:09:48.711Z,19.20
2018-06-13T01:12:18.951Z,19.18
2018-06-13T01:14:49.174Z,19.18
2018-06-13T01:17:19.134Z,19.17
2018-06-13T01:19:49.399Z,19.19
2018-06-13T01:22:19.504Z,19.14
2018-06-13T01:24:49.923Z,19.16
2018-06-13T01:27:20.190Z,19.17
2018-06-13T01:29:50.245Z,19.14
2018-06-13T01:32:20.446Z,19.09
2018-06-13T01:34:50.540Z,19.10
2018-06-13T01:37:20.731Z,19.17
2018-06-13T01:39:50.876Z,19.21
2018-06-13T01:42:20.994Z,19.22
2018-06-13T01:44:51.312Z,19.18
2018-06-13T01:47:21.476Z,19.13
2018-06-13T01:49:51.964Z,19.04
2018-06-13T01:52:21.928Z,19.00
2018-06-13T01:54:52.128Z,19.01
2018-06-13T01:57:22.512Z,18.98
2018-06-13T01:59:52.730Z,18.93
2018-06-13T02:02:22.955Z,18.93
2018-06-13T02:04:53.071Z,18.89
2018-06-13T02:07:23.342Z,18.92
2018-06-13T02:09:53.827Z,18.96
2018-06-13T02:12:24.007Z,18.94
2018-06-13T02:14:54.191Z,18.92
2018-06-13T02:17:24.282Z,18.86
2018-06-13T02:19:54.631Z,18.83
2018-06-13T02:22:24.733Z,18.86
2018-06-13T02:24:54.983Z,18.81
2018-06-13T02:27:24.817Z,18.81
2018-06-13T02:29:55.106Z,18.81
2018-06-13T02:32:25.339Z,18.81
2018-06-13T02:34:55.138Z,18.88
2018-06-13T02:37:25.352Z,18.94
2018-06-13T02:39:55.493Z,18.93
2018-06-13T02:42:25.779Z,18.88
2018-06-13T02:44:55.712Z,18.87
2018-06-13T02:47:25.935Z,18.83
2018-06-13T02:49:56.184Z,18.83
2018-06-13T02:52:26.375Z,18.81
2018-06-13T02:54:56.646Z,18.78
2018-06-13T02:57:26.825Z,18.76
2018-06-13T02:59:56.958Z,18.74
2018-06-13T03:02:27.172Z,18.76
2018-06-13T03:04:57.284Z,18.77
2018-06-13T03:07:27.417Z,18.77
2018-06-13T03:09:57.640Z,18.81
2018-06-13T03:12:27.848Z,18.81
2018-06-13T03:14:57.902Z,18.81
2018-06-13T03:17:28.089Z,18.85
2018-06-13T03:19:58.263Z,18.87
2018-06-13T03:22:28.726Z,18.94
2018-06-13T03:24:58.775Z,19.01
2018-06-13T03:27:29.307Z,19.04
2018-06-13T03:29:59.646Z,19.10
2018-06-13T03:32:29.738Z,19.15
2018-06-13T03:35:00.047Z,19.19
2018-06-13T03:37:30.274Z,19.27
2018-06-13T03:40:00.415Z,19.33
2018-06-13T03:42:30.610Z,19.37
2018-06-13T03:45:01.168Z,19.43
2018-06-13T03:47:37.743Z,19.49
2018-06-13T03:50:07.910Z,19.50
2018-06-13T03:52:38.159Z,19.55
2018-06-13T03:55:08.601Z,19.60
2018-06-13T03:57:38.870Z,19.66
2018-06-13T04:00:08.736Z,19.69
2018-06-13T04:02:38.784Z,19.79
2018-06-13T04:05:08.970Z,19.83
2018-06-13T04:07:39.226Z,19.88
2018-06-13T04:10:09.470Z,19.86
2018-06-13T04:12:39.674Z,19.92
2018-06-13T04:15:10.074Z,19.91
2018-06-13T04:17:40.220Z,19.91
2018-06-13T04:20:10.383Z,19.91
2018-06-13T04:22:40.631Z,19.85
2018-06-13T04:25:11.114Z,19.85
2018-06-13T04:27:41.102Z,19.87
2018-06-13T04:30:11.210Z,19.85
2018-06-13T04:32:41.471Z,19.85
2018-06-13T04:35:11.741Z,19.85
2018-06-13T04:37:41.911Z,19.81
2018-06-13T04:40:12.099Z,19.85
2018-06-13T04:42:42.241Z,19.92
2018-06-13T04:45:12.631Z,19.96
2018-06-13T04:47:43.419Z,19.98
2018-06-13T04:50:13.611Z,20.09
2018-06-13T04:52:44.139Z,20.06
2018-06-13T04:55:14.646Z,20.20
2018-06-13T04:57:44.771Z,20.29
2018-06-13T05:00:15.052Z,20.37
2018-06-13T05:02:46.142Z,20.42
2018-06-13T05:05:16.254Z,20.46
2018-06-13T05:07:46.497Z,20.50
2018-06-13T05:10:16.580Z,20.48
2018-06-13T05:12:46.906Z,20.43
2018-06-13T05:15:17.084Z,20.43
2018-06-13T05:17:47.196Z,20.56
2018-06-13T05:20:17.288Z,20.65
2018-06-13T05:22:48.140Z,20.71
2018-06-13T05:25:18.651Z,20.73
2018-06-13T05:27:48.822Z,20.71
2018-06-13T05:30:18.890Z,20.78
2018-06-13T05:32:49.466Z,20.80
2018-06-13T05:35:19.702Z,20.81
2018-06-13T05:37:50.080Z,20.79
2018-06-13T05:40:20.394Z,20.83
2018-06-13T05:42:50.619Z,20.85
2018-06-13T05:45:20.730Z,21.01
2018-06-13T05:47:50.913Z,21.06
2018-06-13T05:50:21.051Z,21.07
2018-06-13T05:52:51.435Z,21.04
2018-06-13T05:55:21.673Z,21.11
2018-06-13T05:57:51.855Z,21.14
2018-06-13T06:00:22.038Z,21.08
2018-06-13T06:02:52.186Z,21.15
2018-06-13T06:05:22.774Z,21.20
2018-06-13T06:07:53.099Z,21.23
2018-06-13T06:10:23.269Z,21.08
2018-06-13T06:12:53.555Z,21.21
2018-06-13T06:15:23.966Z,21.15
2018-06-13T06:17:54.039Z,21.18
2018-06-13T06:20:24.257Z,21.31
2018-06-13T06:22:55.145Z,21.45
2018-06-13T06:25:25.264Z,21.48
2018-06-13T06:27:55.545Z,21.70
2018-06-13T06:30:25.729Z,21.86
2018-06-13T06:32:55.939Z,22.07
2018-06-13T06:35:26.189Z,22.16
2018-06-13T06:37:56.353Z,22.29
2018-06-13T06:40:26.828Z,22.26
2018-06-13T06:42:57.026Z,22.14
2018-06-13T06:45:27.063Z,22.10
2018-06-13T06:47:56.918Z,22.10
2018-06-13T06:50:27.009Z,22.11
2018-06-13T06:52:57.160Z,22.13
2018-06-13T06:55:27.383Z,22.23
2018-06-13T06:57:57.751Z,22.28
2018-06-13T07:00:27.938Z,22.27
2018-06-13T07:02:58.051Z,22.16
2018-06-13T07:05:28.229Z,22.08
2018-06-13T07:07:58.413Z,21.94
2018-06-13T07:10:28.715Z,21.95
2018-06-13T07:12:58.858Z,21.97
2018-06-13T07:15:28.872Z,21.96
2018-06-13T07:17:59.025Z,22.11
2018-06-13T07:20:29.100Z,22.18
2018-06-13T07:22:59.362Z,22.29
2018-06-13T07:25:29.560Z,22.42
2018-06-13T07:27:59.964Z,22.56
2018-06-13T07:30:30.090Z,22.66
2018-06-13T07:33:00.356Z,22.69
2018-06-13T07:35:30.756Z,22.70
2018-06-13T07:38:00.973Z,22.69
2018-06-13T07:40:31.297Z,22.72
2018-06-13T07:43:01.401Z,22.67
2018-06-13T07:45:31.570Z,22.68
2018-06-13T07:48:01.834Z,22.71
2018-06-13T07:50:31.976Z,22.83
2018-06-13T07:53:02.091Z,22.94
2018-06-13T07:55:32.302Z,23.02
2018-06-13T07:58:02.476Z,23.11
2018-06-13T08:00:32.670Z,23.32
2018-06-13T08:03:02.867Z,23.49
2018-06-13T08:05:33.116Z,23.56
2018-06-13T08:08:03.296Z,23.53
2018-06-13T08:10:33.592Z,23.33
2018-06-13T08:13:03.759Z,23.32
2018-06-13T08:15:34.035Z,23.27
2018-06-13T08:18:04.308Z,23.32
2018-06-13T08:20:34.459Z,23.29
2018-06-13T08:23:04.544Z,23.46
2018-06-13T08:25:34.812Z,23.70
2018-06-13T08:28:05.006Z,23.81
2018-06-13T08:30:35.494Z,23.94
2018-06-13T08:33:05.796Z,24.15
2018-06-13T08:35:36.235Z,24.31
2018-06-13T08:38:06.643Z,24.41
2018-06-13T08:40:36.873Z,24.44
2018-06-13T08:43:07.146Z,24.50
2018-06-13T08:48:03.573Z,24.39
2018-06-13T08:50:33.863Z,24.40
2018-06-13T08:53:04.472Z,24.37
2018-06-13T08:55:34.828Z,24.27
2018-06-13T08:58:05.365Z,24.25
2018-06-13T09:00:35.679Z,24.17
2018-06-13T09:03:06.011Z,24.02
2018-06-13T09:05:36.332Z,23.84
2018-06-13T09:08:06.563Z,23.69
2018-06-13T09:10:36.877Z,23.57
2018-06-13T09:13:07.201Z,23.48
2018-06-13T09:15:37.622Z,23.39
2018-06-13T09:18:07.801Z,23.15
2018-06-13T09:20:38.071Z,23.05
2018-06-13T09:23:08.443Z,22.96
2018-06-13T09:25:38.715Z,22.83
2018-06-13T09:28:09.409Z,22.77
2018-06-13T09:30:39.600Z,22.72
2018-06-13T09:33:09.857Z,22.68
2018-06-13T09:35:39.797Z,22.75
2018-06-13T09:38:09.899Z,22.70
2018-06-13T09:40:40.260Z,22.64
2018-06-13T09:43:10.444Z,22.63
2018-06-13T09:45:40.594Z,22.59
2018-06-13T09:48:11.110Z,22.53
2018-06-13T09:50:41.342Z,22.53
2018-06-13T09:53:11.432Z,22.53
2018-06-13T09:55:41.695Z,22.52
2018-06-13T09:58:11.895Z,22.70
2018-06-13T10:00:47.663Z,22.82
2018-06-13T10:03:18.026Z,22.98
2018-06-13T10:05:48.467Z,23.08
2018-06-13T10:08:18.872Z,23.36
2018-06-13T10:10:49.356Z,23.78
2018-06-13T10:13:19.690Z,24.16
2018-06-13T10:15:49.678Z,24.39
2018-06-13T10:18:19.965Z,24.67
2018-06-13T10:20:50.166Z,24.83
2018-06-13T10:23:20.702Z,25.11
2018-06-13T10:25:50.764Z,25.23
2018-06-13T10:28:21.054Z,25.13
2018-06-13T10:30:51.248Z,25.19
2018-06-13T10:33:21.473Z,25.26
2018-06-13T10:35:51.249Z,25.43
2018-06-13T10:38:21.373Z,25.56
2018-06-13T10:40:51.611Z,25.38
2018-06-13T10:43:21.888Z,25.54
2018-06-13T10:45:52.134Z,25.82
2018-06-13T10:48:22.303Z,26.16
2018-06-13T10:50:52.582Z,26.39
2018-06-13T10:53:22.911Z,26.46
2018-06-13T10:55:53.225Z,26.26
2018-06-13T10:58:23.352Z,26.51
2018-06-13T11:00:53.875Z,26.59
2018-06-13T11:03:24.111Z,26.66
2018-06-13T11:05:54.119Z,26.99
2018-06-13T11:08:24.511Z,27.03
2018-06-13T11:10:54.668Z,27.26
2018-06-13T11:13:24.783Z,27.37
2018-06-13T11:15:54.973Z,27.15
2018-06-13T11:18:25.140Z,27.28
2018-06-13T11:20:55.349Z,27.33
2018-06-13T11:23:25.480Z,26.88
2018-06-13T11:25:55.618Z,26.56
2018-06-13T11:28:25.826Z,26.40
2018-06-13T11:30:56.051Z,26.31
2018-06-13T11:33:26.420Z,26.06
2018-06-13T11:35:56.717Z,25.86
2018-06-13T11:38:26.924Z,25.39
2018-06-13T11:40:57.051Z,25.10
2018-06-13T11:43:27.178Z,24.90
2018-06-13T11:45:57.517Z,24.69
2018-06-13T11:48:27.699Z,24.57
2018-06-13T11:50:57.931Z,24.38
2018-06-13T11:53:28.353Z,24.26
2018-06-13T11:55:58.821Z,24.16
2018-06-13T11:58:28.996Z,24.13
2018-06-13T12:00:59.287Z,24.09
2018-06-13T12:03:29.521Z,24.01
2018-06-13T12:05:59.933Z,24.03
2018-06-13T12:08:30.540Z,23.98
2018-06-13T12:11:00.875Z,23.88
2018-06-13T12:13:31.162Z,23.85
2018-06-13T12:16:01.483Z,23.89
2018-06-13T12:18:31.719Z,23.91
2018-06-13T12:21:02.646Z,23.98
2018-06-13T12:23:32.879Z,24.04
2018-06-13T12:26:03.066Z,24.12
2018-06-13T12:28:33.423Z,24.21
2018-06-13T12:31:03.703Z,24.30
2018-06-13T12:33:33.932Z,24.28
2018-06-13T12:36:04.499Z,24.22
2018-06-13T12:38:34.446Z,24.25
2018-06-13T12:41:04.415Z,24.19
2018-06-13T12:43:34.689Z,24.18
2018-06-13T12:46:04.877Z,24.15
2018-06-13T12:48:34.994Z,24.10
2018-06-13T12:51:05.115Z,24.07
2018-06-13T12:53:35.573Z,24.06
2018-06-13T12:56:05.595Z,24.09
2018-06-13T12:58:35.684Z,24.15
2018-06-13T13:01:06.259Z,24.21
2018-06-13T13:03:36.496Z,24.32
2018-06-13T13:06:07.106Z,24.47
2018-06-13T13:08:37.904Z,24.62
2018-06-13T13:11:09.011Z,24.69
2018-06-13T13:13:39.526Z,24.64
2018-06-13T13:16:09.830Z,24.60
2018-06-13T13:18:40.183Z,24.62
2018-06-13T13:21:10.903Z,24.60
2018-06-13T13:23:40.842Z,24.30
2018-06-13T13:26:11.029Z,24.21
2018-06-13T13:28:41.202Z,24.22
2018-06-13T13:31:11.507Z,24.10
2018-06-13T13:33:41.662Z,24.08
2018-06-13T13:36:11.845Z,23.93
2018-06-13T13:38:41.987Z,23.79
2018-06-13T13:41:12.494Z,23.76
2018-06-13T13:43:43.184Z,23.73
2018-06-13T13:46:13.447Z,23.72
2018-06-13T13:48:43.585Z,23.66
2018-06-13T13:51:13.859Z,23.68
2018-06-13T13:53:44.580Z,23.72
2018-06-13T13:56:14.819Z,23.72
2018-06-13T13:58:45.457Z,23.65
2018-06-13T14:01:15.923Z,23.63
2018-06-13T14:03:46.267Z,23.58
2018-06-13T14:06:16.423Z,23.51
2018-06-13T14:08:47.406Z,23.43
2018-06-13T14:11:17.977Z,23.46
2018-06-13T14:13:51.371Z,23.54
2018-06-13T14:16:21.728Z,23.59
2018-06-13T14:18:51.966Z,23.53
2018-06-13T14:21:22.230Z,23.41
2018-06-13T14:23:52.443Z,23.14
2018-06-13T14:26:22.675Z,22.94
2018-06-13T14:28:53.080Z,22.66
2018-06-13T14:31:23.604Z,22.39
2018-06-13T14:33:54.060Z,22.24
2018-06-13T14:36:24.474Z,22.17
2018-06-13T14:38:54.689Z,22.06
2018-06-13T14:41:25.371Z,22.02
2018-06-13T14:43:55.331Z,21.93
2018-06-13T14:46:25.579Z,21.82
2018-06-13T14:48:55.644Z,21.68
2018-06-13T14:51:25.820Z,21.49
2018-06-13T14:53:57.575Z,21.34
2018-06-13T14:56:32.682Z,21.07
2018-06-13T14:59:03.482Z,20.99
2018-06-13T15:01:34.038Z,20.92
2018-06-13T15:04:04.238Z,20.92
2018-06-13T15:06:34.401Z,20.85
2018-06-13T15:09:07.706Z,20.72
2018-06-13T15:11:39.719Z,20.65
2018-06-13T15:14:09.906Z,20.60
2018-06-13T15:16:40.328Z,20.54
2018-06-13T15:19:10.704Z,20.53
2018-06-13T15:21:40.999Z,20.49
2018-06-13T15:24:11.371Z,20.44
2018-06-13T15:26:41.528Z,20.45
2018-06-13T15:29:11.643Z,20.47
2018-06-13T15:31:41.894Z,20.48
2018-06-13T15:34:12.016Z,20.55
2018-06-13T15:36:42.847Z,20.58
2018-06-13T15:39:15.050Z,20.58
2018-06-13T15:41:45.474Z,20.60
2018-06-13T15:44:15.749Z,20.59
2018-06-13T15:46:45.878Z,20.62
2018-06-13T15:49:16.206Z,20.69
2018-06-13T15:51:46.541Z,20.71
2018-06-13T15:54:16.699Z,20.74
2018-06-13T15:56:46.826Z,20.76
2018-06-13T15:59:17.216Z,20.78
2018-06-13T16:01:47.508Z,20.79
2018-06-13T16:04:17.861Z,20.79
2018-06-13T16:06:48.062Z,20.81
2018-06-13T16:09:18.166Z,20.80
2018-06-13T16:11:48.366Z,20.81
2018-06-13T16:14:18.768Z,20.82
2018-06-13T16:16:48.750Z,20.82
2018-06-13T16:19:18.965Z,20.87
2018-06-13T16:21:49.326Z,20.90
2018-06-13T16:24:19.812Z,20.86
2018-06-13T16:26:49.935Z,20.83
2018-06-13T16:29:20.262Z,20.83
2018-06-13T16:31:50.382Z,20.76
2018-06-13T16:34:20.392Z,20.73
2018-06-13T16:36:50.441Z,20.72
2018-06-13T16:39:20.857Z,20.75
2018-06-13T16:41:50.964Z,20.74
2018-06-13T16:44:21.183Z,20.72
2018-06-13T16:46:51.300Z,20.68
2018-06-13T16:49:21.419Z,20.58
2018-06-13T16:51:55.950Z,20.58
2018-06-13T16:54:37.022Z,20.56
2018-06-13T16:57:06.962Z,20.49
2018-06-13T16:59:37.771Z,20.50
2018-06-13T17:02:07.912Z,20.48
2018-06-13T17:04:38.318Z,20.46
2018-06-13T17:07:08.495Z,20.48
2018-06-13T17:09:39.171Z,20.53
2018-06-13T17:12:09.446Z,20.51
2018-06-13T17:14:39.752Z,20.50
2018-06-13T17:17:10.319Z,20.49
2018-06-13T17:19:40.906Z,20.51
2018-06-13T17:22:11.286Z,20.53
2018-06-13T17:24:41.654Z,20.52
2018-06-13T17:27:11.926Z,20.51
2018-06-13T17:29:42.179Z,20.50
2018-06-13T17:32:12.415Z,20.44
2018-06-13T17:34:42.639Z,20.42
2018-06-13T17:37:13.146Z,20.37
2018-06-13T17:39:43.491Z,20.34
2018-06-13T17:42:13.806Z,20.35
2018-06-13T17:44:44.278Z,20.27
2018-06-13T17:47:14.491Z,20.26
2018-06-13T17:49:44.685Z,20.25
2018-06-13T17:52:15.167Z,20.17
2018-06-13T17:54:45.459Z,20.07
2018-06-13T17:57:15.574Z,20.04
2018-06-13T17:59:45.775Z,20.00
2018-06-13T18:02:16.229Z,20.01
2018-06-13T18:04:46.422Z,20.00
2018-06-13T18:07:16.626Z,19.96
2018-06-13T18:09:46.847Z,19.93
2018-06-13T18:12:17.014Z,19.86
2018-06-13T18:14:47.378Z,19.82
2018-06-13T18:17:17.739Z,19.81
2018-06-13T18:19:47.854Z,19.75
2018-06-13T18:22:18.003Z,19.70
2018-06-13T18:24:48.308Z,19.64
2018-06-13T18:27:18.572Z,19.59
2018-06-13T18:29:48.954Z,19.59
2018-06-13T18:32:19.106Z,19.57
2018-06-13T18:34:49.238Z,19.56
2018-06-13T18:37:19.315Z,19.56
2018-06-13T18:39:49.810Z,19.55
2018-06-13T18:42:20.276Z,19.51
2018-06-13T18:44:50.471Z,19.43
2018-06-13T18:47:20.721Z,19.40
2018-06-13T18:49:50.879Z,19.39
2018-06-13T18:52:21.183Z,19.32
2018-06-13T18:54:51.326Z,19.30
2018-06-13T18:57:21.526Z,19.35
2018-06-13T18:59:51.929Z,19.34
2018-06-13T19:02:22.176Z,19.29
2018-06-13T19:04:52.752Z,19.29
2018-06-13T19:07:23.285Z,19.28
2018-06-13T19:09:53.468Z,19.23
2018-06-13T19:12:24.055Z,19.19
2018-06-13T19:14:54.538Z,19.16
2018-06-13T19:17:24.718Z,19.14
2018-06-13T19:19:54.868Z,19.13
2018-06-13T19:22:25.060Z,19.07
2018-06-13T19:24:55.431Z,19.01
2018-06-13T19:27:25.708Z,18.99
2018-06-13T19:29:55.834Z,18.99
2018-06-13T19:32:26.236Z,18.96
2018-06-13T19:34:56.793Z,18.96
2018-06-13T19:37:27.090Z,18.95
2018-06-13T19:39:57.328Z,18.90
2018-06-13T19:42:27.638Z,18.78
2018-06-13T19:44:58.231Z,18.83
2018-06-13T19:47:33.715Z,18.80
2018-06-13T19:50:04.126Z,18.75
2018-06-13T19:52:39.298Z,18.72
2018-06-13T19:55:15.389Z,18.64
2018-06-13T19:57:45.707Z,18.62
2018-06-13T20:00:16.443Z,18.58
2018-06-13T20:02:51.531Z,18.57
2018-06-13T20:05:26.827Z,18.54
2018-06-13T20:07:57.631Z,18.51
2018-06-13T20:10:27.846Z,18.52
2018-06-13T20:13:03.039Z,18.51
2018-06-13T20:15:38.302Z,18.48
2018-06-13T20:18:13.859Z,18.48
2018-06-13T20:20:44.440Z,18.48
2018-06-13T20:23:14.893Z,18.51
2018-06-13T20:25:50.662Z,18.50
2018-06-13T20:28:32.543Z,18.47
2018-06-13T20:31:07.643Z,18.46
2018-06-13T20:33:37.854Z,18.36
2018-06-13T20:36:07.978Z,18.37
2018-06-13T20:38:38.191Z,18.35
2018-06-13T20:41:08.213Z,18.31
2018-06-13T20:43:38.578Z,18.24
2018-06-13T20:46:08.839Z,18.23
2018-06-13T20:48:39.184Z,18.18
2018-06-13T20:51:09.608Z,18.18
2018-06-13T20:53:40.135Z,18.18
2018-06-13T20:56:10.324Z,18.12
2018-06-13T20:58:40.578Z,18.13
2018-06-13T21:01:11.015Z,18.10
2018-06-13T21:03:41.167Z,18.11
2018-06-13T21:06:11.352Z,18.08
2018-06-13T21:08:41.781Z,18.04
2018-06-13T21:11:12.051Z,18.04
2018-06-13T21:13:42.645Z,18.11
2018-06-13T21:16:12.822Z,18.18
2018-06-13T21:18:43.056Z,18.23
2018-06-13T21:21:13.319Z,18.25
2018-06-13T21:23:43.599Z,18.26
2018-06-13T21:26:13.889Z,18.30
2018-06-13T21:28:43.973Z,18.27
2018-06-13T21:31:14.895Z,18.29
2018-06-13T21:33:45.141Z,18.29
2018-06-13T21:36:15.504Z,18.25
2018-06-13T21:38:45.965Z,18.27
2018-06-13T21:41:16.458Z,18.22
2018-06-13T21:43:46.650Z,18.21
2018-06-13T21:46:16.991Z,18.23
2018-06-13T21:48:47.290Z,18.21
2018-06-13T21:51:18.199Z,18.22
2018-06-13T21:53:48.549Z,18.23
2018-06-13T21:56:18.641Z,18.21
2018-06-13T21:58:49.023Z,18.20
2018-06-13T22:01:19.485Z,18.16
2018-06-13T22:03:49.455Z,18.15
2018-06-13T22:06:19.793Z,18.18
2018-06-13T22:08:50.050Z,18.17
2018-06-13T22:11:20.167Z,18.18
2018-06-13T22:13:50.440Z,18.17
2018-06-13T22:16:20.555Z,18.13
2018-06-13T22:18:50.749Z,18.06
2018-06-13T22:21:20.896Z,18.08
2018-06-13T22:23:50.973Z,18.08
2018-06-13T22:26:21.287Z,18.10
2018-06-13T22:28:51.463Z,18.13
2018-06-13T22:31:21.825Z,18.15
2018-06-13T22:33:52.047Z,18.16
2018-06-13T22:36:22.184Z,18.04
2018-06-13T22:38:52.432Z,17.97
2018-06-13T22:41:23.070Z,17.96
2018-06-13T22:43:53.313Z,17.95
2018-06-13T22:46:23.478Z,17.93
2018-06-13T22:48:53.509Z,17.86
2018-06-13T22:51:24.462Z,17.84
2018-06-13T22:53:54.990Z,17.86
2018-06-13T22:56:25.667Z,17.82
2018-06-13T22:58:56.012Z,17.68
2018-06-13T23:01:26.194Z,17.75
2018-06-13T23:03:56.557Z,17.78
2018-06-13T23:06:26.725Z,17.83
2018-06-13T23:08:56.876Z,17.74
2018-06-13T23:11:27.122Z,17.68
2018-06-13T23:13:57.316Z,17.68
2018-06-13T23:16:27.427Z,17.70
2018-06-13T23:18:57.623Z,17.70
2018-06-13T23:21:27.794Z,17.65
2018-06-13T23:24:01.011Z,17.61
2018-06-13T23:26:31.177Z,17.54
2018-06-13T23:29:01.224Z,17.53
2018-06-13T23:31:31.830Z,17.46
2018-06-13T23:34:02.179Z,17.48
2018-06-13T23:36:32.628Z,17.48
2018-06-13T23:39:03.051Z,17.46
2018-06-13T23:41:33.267Z,17.50
2018-06-13T23:44:03.704Z,17.39
2018-06-13T23:46:34.218Z,17.46
2018-06-13T23:49:04.782Z,17.32
2018-06-13T23:51:35.127Z,17.32
2018-06-13T23:54:06.113Z,17.28
2018-06-13T23:56:36.097Z,17.30
2018-06-13T23:59:07.171Z,17.20
